createdAt,value
2022-12-29T00:14:19.205Z,98924.14
2022-12-29T00:17:30.485Z,98915.72
2022-12-29T00:20:58.684Z,98923.33
2022-12-29T00:28:03.059Z,98929.57
2022-12-29T00:31:49.442Z,98926.01
2022-12-29T00:38:23.561Z,98925.51
2022-12-29T00:41:52.029Z,98931.41
2022-12-29T00:52:30.621Z,98916.29
2022-12-29T00:55:59.815Z,98921.25
2022-12-29T01:06:37.998Z,98927.53
2022-12-29T01:13:34.673Z,98928.00
2022-12-29T01:20:34.979Z,98911.88
2022-12-29T01:27:29.424Z,98892.25
2022-12-29T01:30:41.940Z,98890.23
2022-12-29T01:33:54.275Z,98870.49
2022-12-29T01:37:06.189Z,98863.63
2022-12-29T01:40:20.387Z,98867.23
2022-12-29T01:43:51.536Z,98855.17
2022-12-29T01:47:05.294Z,98853.17
2022-12-29T01:50:22.519Z,98846.66
2022-12-29T01:53:40.306Z,98860.98
2022-12-29T01:56:54.082Z,98858.80
2022-12-29T02:00:38.936Z,98857.09
2022-12-29T02:03:51.034Z,98864.77
2022-12-29T02:07:11.540Z,98857.84
2022-12-29T02:10:24.906Z,98850.27
2022-12-29T02:13:37.475Z,98841.42
2022-12-29T02:17:38.317Z,98835.74
2022-12-29T02:21:53.310Z,98847.00
2022-12-29T02:25:50.791Z,98842.29
2022-12-29T02:29:46.114Z,98837.03
2022-12-29T02:37:18.807Z,98832.62
2022-12-29T02:40:36.546Z,98820.28
2022-12-29T02:43:58.579Z,98811.77
2022-12-29T02:47:32.297Z,98802.72
2022-12-29T02:50:50.086Z,98799.16
2022-12-29T02:54:19.541Z,98795.13
2022-12-29T02:57:41.258Z,98797.77
2022-12-29T03:01:04.375Z,98798.73
2022-12-29T03:04:30.923Z,98800.50
2022-12-29T03:07:51.985Z,98796.39
2022-12-29T03:11:11.924Z,98793.56
2022-12-29T03:14:45.634Z,98788.50
2022-12-29T03:18:35.068Z,98782.95
2022-12-29T03:26:26.511Z,98772.73
2022-12-29T03:29:43.332Z,98768.20
2022-12-29T03:32:59.937Z,98771.14
2022-12-29T03:36:19.621Z,98776.41
2022-12-29T03:39:33.767Z,98785.85
2022-12-29T03:42:47.959Z,98789.33
2022-12-29T03:46:00.831Z,98785.16
2022-12-29T03:49:13.182Z,98782.54
2022-12-29T03:52:25.258Z,98780.41
2022-12-29T03:55:37.769Z,98778.30
2022-12-29T03:58:49.784Z,98768.43
2022-12-29T04:02:03.729Z,98793.97
2022-12-29T04:05:17.143Z,98804.56
2022-12-29T04:08:29.377Z,98802.19
2022-12-29T04:11:41.568Z,98792.70
2022-12-29T04:14:53.684Z,98806.23
2022-12-29T04:18:05.827Z,98810.28
2022-12-29T04:21:18.999Z,98813.30
2022-12-29T04:24:31.116Z,98818.13
2022-12-29T04:27:43.431Z,98808.76
2022-12-29T04:31:14.350Z,98806.31
2022-12-29T04:34:28.121Z,98794.03
2022-12-29T04:37:40.222Z,98786.27
2022-12-29T04:40:53.405Z,98799.39
2022-12-29T05:18:28.786Z,98760.31
2022-12-29T05:21:40.900Z,98752.38
2022-12-29T05:24:53.650Z,98740.02
2022-12-29T05:28:05.860Z,98746.23
2022-12-29T05:31:32.537Z,98727.84
2022-12-29T05:34:44.745Z,98723.84
2022-12-29T05:37:56.919Z,98727.63
2022-12-29T05:41:09.140Z,98712.24
2022-12-29T05:44:39.397Z,98717.81
2022-12-29T05:47:57.213Z,98722.64
2022-12-29T05:51:14.095Z,98718.72
2022-12-29T05:54:28.538Z,98716.07
2022-12-29T06:01:58.989Z,98737.16
2022-12-29T06:05:12.839Z,98731.05
2022-12-29T06:22:17.192Z,98727.30
2022-12-29T06:25:32.162Z,98725.48
2022-12-29T06:28:44.467Z,98734.08
2022-12-29T06:31:59.224Z,98720.92
2022-12-29T06:35:14.529Z,98738.63
2022-12-29T06:38:36.318Z,98731.01
2022-12-29T06:41:48.549Z,98736.77
2022-12-29T06:45:10.140Z,98736.89
2022-12-29T06:48:22.142Z,98732.47
2022-12-29T06:51:34.183Z,98733.08
2022-12-29T06:54:48.836Z,98732.51
2022-12-29T06:58:03.366Z,98730.26
2022-12-29T07:01:15.464Z,98718.61
2022-12-29T07:04:28.354Z,98709.98
2022-12-29T07:07:40.282Z,98707.30
2022-12-29T07:10:52.369Z,98706.27
2022-12-29T07:14:04.287Z,98697.06
2022-12-29T07:17:16.346Z,98696.61
2022-12-29T07:20:29.138Z,98695.58
2022-12-29T07:23:41.377Z,98707.57
2022-12-29T07:26:53.264Z,98706.72
2022-12-29T07:30:05.276Z,98713.05
2022-12-29T07:33:17.107Z,98718.84
2022-12-29T07:36:34.155Z,98723.67
2022-12-29T07:39:44.177Z,98726.91
2022-12-29T07:42:55.952Z,98729.91
2022-12-29T07:46:14.592Z,98722.14
2022-12-29T07:49:24.039Z,98723.22
2022-12-29T07:52:36.153Z,98735.31
2022-12-29T07:55:48.799Z,98733.30
2022-12-29T07:59:00.814Z,98724.67
2022-12-29T08:02:14.016Z,98723.83
2022-12-29T08:05:27.445Z,98715.66
2022-12-29T08:08:39.317Z,98708.28
2022-12-29T08:11:51.565Z,98712.70
2022-12-29T08:15:03.391Z,98717.65
2022-12-29T08:18:15.651Z,98724.27
2022-12-29T08:21:27.501Z,98713.94
2022-12-29T08:24:39.447Z,98715.75
2022-12-29T08:27:51.457Z,98718.38
2022-12-29T08:31:06.274Z,98723.72
2022-12-29T08:34:18.512Z,98722.36
2022-12-29T08:37:31.428Z,98725.63
2022-12-29T08:40:44.388Z,98721.64
2022-12-29T08:43:56.863Z,98725.53
2022-12-29T08:47:09.208Z,98714.01
2022-12-29T08:50:21.298Z,98713.62
2022-12-29T08:53:33.123Z,98708.48
2022-12-29T08:56:46.127Z,98707.36
2022-12-29T08:59:59.500Z,98702.91
2022-12-29T09:03:12.003Z,98702.52
2022-12-29T09:06:25.713Z,98707.33
2022-12-29T09:09:38.030Z,98700.53
2022-12-29T09:12:49.901Z,98698.41
2022-12-29T09:16:08.755Z,98696.28
2022-12-29T09:19:20.679Z,98686.58
2022-12-29T09:22:32.678Z,98682.02
2022-12-29T09:25:45.710Z,98681.55
2022-12-29T09:28:57.930Z,98677.45
2022-12-29T09:32:15.452Z,98679.14
2022-12-29T09:35:25.383Z,98673.95
2022-12-29T09:38:37.492Z,98665.95
2022-12-29T09:41:54.496Z,98651.51
2022-12-29T09:45:10.038Z,98643.66
2022-12-29T09:48:25.525Z,98643.87
2022-12-29T09:51:38.306Z,98650.04
2022-12-29T09:55:02.897Z,98652.05
2022-12-29T09:58:19.151Z,98659.19
2022-12-29T10:01:39.169Z,98659.61
2022-12-29T10:04:52.124Z,98664.66
2022-12-29T10:08:21.737Z,98654.63
2022-12-29T10:11:44.500Z,98647.40
2022-12-29T10:15:07.558Z,98646.16
2022-12-29T10:19:00.728Z,98635.73
2022-12-29T10:22:22.992Z,98633.67
2022-12-29T10:25:40.382Z,98638.19
2022-12-29T10:28:57.488Z,98647.14
2022-12-29T10:32:11.268Z,98646.16
2022-12-29T10:35:27.129Z,98641.16
2022-12-29T10:38:45.500Z,98641.85
2022-12-29T10:42:02.961Z,98629.44
2022-12-29T10:45:21.726Z,98635.31
2022-12-29T10:48:39.126Z,98623.01
2022-12-29T10:51:55.564Z,98625.23
2022-12-29T10:55:13.462Z,98626.59
2022-12-29T10:58:27.007Z,98613.06
2022-12-29T11:01:48.083Z,98594.52
2022-12-29T11:05:08.467Z,98595.67
2022-12-29T11:08:25.597Z,98590.55
2022-12-29T11:11:43.460Z,98593.30
2022-12-29T11:15:23.648Z,98579.80
2022-12-29T11:18:43.569Z,98584.51
2022-12-29T11:21:56.544Z,98589.06
2022-12-29T11:25:17.656Z,98585.64
2022-12-29T11:28:34.411Z,98579.28
2022-12-29T11:31:49.173Z,98577.83
2022-12-29T11:35:02.764Z,98569.83
2022-12-29T11:38:25.688Z,98574.34
2022-12-29T11:41:39.669Z,98574.63
2022-12-29T11:44:54.691Z,98573.33
2022-12-29T11:48:13.302Z,98573.40
2022-12-29T11:51:34.974Z,98570.24
2022-12-29T11:54:47.344Z,98557.54
2022-12-29T11:58:02.702Z,98560.33
2022-12-29T12:01:21.130Z,98553.86
2022-12-29T12:04:38.167Z,98547.06
2022-12-29T12:07:53.288Z,98551.22
2022-12-29T12:11:12.113Z,98559.20
2022-12-29T12:14:29.465Z,98558.45
2022-12-29T12:18:00.477Z,98553.45
2022-12-29T12:21:21.675Z,98550.45
2022-12-29T12:24:49.722Z,98561.55
2022-12-29T12:28:07.994Z,98559.50
2022-12-29T12:31:30.621Z,98559.30
2022-12-29T12:34:48.005Z,98549.14
2022-12-29T12:38:12.295Z,98558.58
2022-12-29T12:41:33.522Z,98553.22
2022-12-29T12:44:54.106Z,98554.69
2022-12-29T12:48:17.641Z,98552.66
2022-12-29T12:51:36.097Z,98549.48
2022-12-29T12:55:10.088Z,98550.80
2022-12-29T12:58:30.620Z,98539.94
2022-12-29T13:01:51.262Z,98542.09
2022-12-29T13:05:26.994Z,98550.41
2022-12-29T13:09:07.214Z,98547.06
2022-12-29T13:12:30.647Z,98547.06
2022-12-29T13:15:52.039Z,98556.53
2022-12-29T13:19:11.385Z,98555.17
2022-12-29T13:22:29.453Z,98559.98
2022-12-29T13:25:47.492Z,98560.99
2022-12-29T13:29:04.977Z,98553.98
2022-12-29T13:32:30.884Z,98554.61
2022-12-29T13:35:59.832Z,98562.30
2022-12-29T13:39:21.066Z,98557.48
2022-12-29T13:42:33.501Z,98563.95
2022-12-29T13:45:47.681Z,98555.97
2022-12-29T13:49:04.010Z,98562.59
2022-12-29T13:52:21.875Z,98567.39
2022-12-29T13:55:39.787Z,98567.72
2022-12-29T13:58:58.462Z,98574.47
2022-12-29T14:02:18.970Z,98567.75
2022-12-29T14:05:39.276Z,98563.09
2022-12-29T14:08:53.110Z,98565.00
2022-12-29T14:12:05.259Z,98569.23
2022-12-29T14:15:32.777Z,98567.19
2022-12-29T14:18:50.798Z,98572.27
2022-12-29T14:22:07.333Z,98564.25
2022-12-29T14:26:02.094Z,98568.80
2022-12-29T14:29:50.561Z,98579.20
2022-12-29T14:33:19.090Z,98577.50
2022-12-29T14:36:40.164Z,98573.20
2022-12-29T14:39:53.039Z,98579.11
2022-12-29T14:43:06.050Z,98570.08
2022-12-29T14:46:18.266Z,98577.64
2022-12-29T14:49:33.731Z,98582.59
2022-12-29T14:53:00.112Z,98577.18
2022-12-29T14:56:08.311Z,98584.46
2022-12-29T14:59:22.127Z,98588.14
2022-12-29T15:02:39.989Z,98596.89
2022-12-29T15:05:56.330Z,98607.83
2022-12-29T15:09:20.007Z,98613.45
2022-12-29T15:12:38.545Z,98605.94
2022-12-29T15:15:50.650Z,98607.60
2022-12-29T15:19:02.921Z,98606.52
2022-12-29T15:22:16.165Z,98605.55
2022-12-29T15:25:29.109Z,98601.77
2022-12-29T15:28:49.716Z,98603.48
2022-12-29T15:32:02.401Z,98598.89
2022-12-29T15:35:30.671Z,98601.81
2022-12-29T15:38:42.743Z,98602.38
2022-12-29T15:42:06.240Z,98600.28
2022-12-29T15:45:20.214Z,98597.49
2022-12-29T15:52:18.643Z,98598.75
2022-12-29T15:55:37.904Z,98599.16
2022-12-29T15:58:52.949Z,98593.45
2022-12-29T16:02:12.107Z,98590.66
2022-12-29T16:09:12.879Z,98610.16
2022-12-29T16:12:28.459Z,98611.29
2022-12-29T16:15:40.711Z,98603.60
2022-12-29T16:18:57.719Z,98602.34
2022-12-29T16:22:12.157Z,98607.89
2022-12-29T16:25:27.858Z,98614.03
2022-12-29T16:28:46.942Z,98606.64
2022-12-29T16:32:05.014Z,98609.57
2022-12-29T16:35:25.057Z,98599.52
2022-12-29T16:38:42.997Z,98594.48
2022-12-29T16:41:56.023Z,98602.56
2022-12-29T16:45:29.424Z,98602.85
2022-12-29T16:48:46.032Z,98600.85
2022-12-29T16:51:59.454Z,98601.27
2022-12-29T16:55:20.186Z,98608.52
2022-12-29T16:58:36.243Z,98605.80
2022-12-29T17:01:49.046Z,98608.03
2022-12-29T17:05:01.510Z,98607.50
2022-12-29T17:08:27.937Z,98604.17
2022-12-29T17:12:06.946Z,98595.84
2022-12-29T17:15:19.284Z,98599.73
2022-12-29T17:18:29.440Z,98607.50
2022-12-29T17:21:41.398Z,98607.85
2022-12-29T17:24:55.871Z,98605.52
2022-12-29T17:28:11.456Z,98615.30
2022-12-29T17:31:23.674Z,98612.60
2022-12-29T17:38:25.842Z,98615.70
2022-12-29T17:41:39.072Z,98620.28
2022-12-29T17:48:32.816Z,98619.67
2022-12-29T17:51:45.173Z,98630.95
2022-12-29T17:55:01.055Z,98625.03
2022-12-29T17:58:27.692Z,98629.02
2022-12-29T18:01:45.141Z,98629.17
2022-12-29T18:04:54.080Z,98635.08
2022-12-29T18:08:06.751Z,98638.95
2022-12-29T18:11:29.208Z,98630.58
2022-12-29T18:14:41.145Z,98620.81
2022-12-29T18:17:53.630Z,98623.48
2022-12-29T18:21:07.746Z,98623.77
2022-12-29T18:24:21.403Z,98620.83
2022-12-29T18:27:46.200Z,98612.34
2022-12-29T18:30:59.008Z,98617.56
2022-12-29T18:34:19.364Z,98615.95
2022-12-29T18:37:31.359Z,98602.51
2022-12-29T18:40:45.651Z,98610.38
2022-12-29T18:43:58.314Z,98615.92
2022-12-29T18:47:11.053Z,98627.02
2022-12-29T18:50:24.086Z,98624.08
2022-12-29T18:53:38.090Z,98617.61
2022-12-29T18:56:50.099Z,98620.64
2022-12-29T19:00:11.128Z,98614.98
2022-12-29T19:11:26.061Z,98616.81
2022-12-29T19:18:44.228Z,98607.97
2022-12-29T19:47:10.367Z,98611.39
2022-12-29T19:54:41.831Z,98623.02
2022-12-29T19:57:54.995Z,98641.73
2022-12-29T20:01:42.990Z,98640.03
2022-12-29T20:13:34.842Z,98632.52
2022-12-29T20:17:09.496Z,98626.81
2022-12-29T20:20:01.114Z,98627.59
2022-12-29T20:23:13.389Z,98623.38
2022-12-29T20:26:29.376Z,98617.89
2022-12-29T20:29:44.275Z,98619.91
2022-12-29T20:33:08.528Z,98609.70
2022-12-29T20:36:39.070Z,98610.06
2022-12-29T20:39:51.472Z,98617.67
2022-12-29T20:43:03.785Z,98616.91
2022-12-29T20:56:53.383Z,98626.02
2022-12-29T21:00:06.621Z,98631.20
2022-12-29T21:03:18.859Z,98632.36
2022-12-29T21:06:31.134Z,98629.86
2022-12-29T21:09:43.249Z,98634.72
2022-12-29T21:12:55.534Z,98633.06
2022-12-29T21:16:11.265Z,98639.06
2022-12-29T21:23:05.431Z,98635.43
2022-12-29T21:48:08.175Z,98637.91
2022-12-29T22:04:25.278Z,98641.05
2022-12-29T22:07:52.220Z,98637.31
2022-12-29T22:25:53.177Z,98646.02
2022-12-29T22:32:09.216Z,98648.95
2022-12-29T22:35:21.506Z,98639.84
2022-12-29T22:51:21.513Z,98658.55
2022-12-29T22:54:33.464Z,98663.45
2022-12-29T22:57:45.621Z,98657.98
2022-12-29T23:00:57.773Z,98652.97
2022-12-29T23:04:58.771Z,98658.66
2022-12-29T23:07:24.031Z,98664.48
2022-12-29T23:10:36.341Z,98660.42
2022-12-29T23:13:49.121Z,98662.22
2022-12-29T23:17:01.014Z,98655.83
2022-12-29T23:20:15.946Z,98653.19
2022-12-29T23:23:46.219Z,98671.70
2022-12-29T23:26:54.675Z,98660.98
2022-12-29T23:30:06.693Z,98662.36
2022-12-29T23:33:19.309Z,98669.88
2022-12-29T23:36:33.042Z,98669.41
2022-12-29T23:43:37.516Z,98656.09
2022-12-29T23:46:49.614Z,98654.22
2022-12-29T23:50:01.690Z,98656.57
2022-12-29T23:53:14.170Z,98663.09
2022-12-29T23:56:28.068Z,98650.95
2022-12-29T23:59:40.128Z,98659.45
